createdAt,value
2019-05-23T00:00:44.996Z,101393.97
2019-05-23T00:03:37.101Z,101394.34
2019-05-23T00:06:25.941Z,101398.96
2019-05-23T00:09:14.227Z,101395.84
2019-05-23T00:11:58.195Z,101395.00
2019-05-23T00:14:39.965Z,101400.17
2019-05-23T00:17:14.288Z,101396.36
2019-05-23T00:19:44.363Z,101399.34
2019-05-23T00:22:14.887Z,101399.66
2019-05-23T00:24:45.954Z,101399.16
2019-05-23T00:27:17.301Z,101400.75
2019-05-23T00:29:49.016Z,101402.04
2019-05-23T00:32:29.942Z,101396.41
2019-05-23T00:34:59.943Z,101399.20
2019-05-23T00:37:31.215Z,101390.30
2019-05-23T00:40:01.068Z,101389.56
2019-05-23T00:42:31.605Z,101391.84
2019-05-23T00:45:02.397Z,101390.56
2019-05-23T00:47:32.994Z,101392.00
2019-05-23T00:50:03.613Z,101394.23
2019-05-23T00:52:33.477Z,101396.80
2019-05-23T00:55:04.946Z,101394.91
2019-05-23T00:57:34.453Z,101390.02
2019-05-23T01:00:04.697Z,101392.13
2019-05-23T01:02:35.270Z,101389.20
2019-05-23T01:05:06.657Z,101386.59
2019-05-23T01:07:37.025Z,101391.39
2019-05-23T01:10:07.243Z,101388.08
2019-05-23T01:12:37.460Z,101387.33
2019-05-23T01:15:08.405Z,101388.20
2019-05-23T01:17:39.598Z,101392.99
2019-05-23T01:20:12.151Z,101390.43
2019-05-23T01:22:41.758Z,101389.69
2019-05-23T01:25:12.576Z,101387.86
2019-05-23T01:27:43.172Z,101387.67
2019-05-23T01:30:16.419Z,101385.22
2019-05-23T01:32:47.817Z,101384.34
2019-05-23T01:35:22.251Z,101385.22
2019-05-23T01:37:52.589Z,101384.44
2019-05-23T01:40:22.374Z,101385.72
2019-05-23T01:42:52.261Z,101379.22
2019-05-23T01:45:22.818Z,101383.85
2019-05-23T01:47:53.269Z,101382.75
2019-05-23T01:50:25.989Z,101384.03
2019-05-23T01:52:55.642Z,101380.59
2019-05-23T01:55:25.165Z,101386.47
2019-05-23T01:57:54.651Z,101389.17
2019-05-23T02:00:26.755Z,101388.17
2019-05-23T02:02:56.513Z,101391.73
2019-05-23T02:05:26.098Z,101393.72
2019-05-23T02:07:56.641Z,101399.16
2019-05-23T02:10:26.122Z,101397.51
2019-05-23T02:12:55.705Z,101395.31
2019-05-23T02:15:25.969Z,101395.81
2019-05-23T02:17:56.990Z,101389.82
2019-05-23T02:20:27.307Z,101390.59
2019-05-23T02:22:58.677Z,101397.69
2019-05-23T02:25:29.090Z,101392.09
2019-05-23T02:27:59.466Z,101393.63
2019-05-23T02:30:36.241Z,101395.34
2019-05-23T02:33:00.232Z,101389.39
2019-05-23T02:35:29.710Z,101393.22
2019-05-23T02:38:21.790Z,101384.27
2019-05-23T02:41:00.233Z,101380.83
2019-05-23T02:43:32.222Z,101378.18
2019-05-23T02:46:03.941Z,101378.68
2019-05-23T02:48:39.237Z,101372.64
2019-05-23T02:51:13.232Z,101372.19
2019-05-23T02:53:44.187Z,101371.33
2019-05-23T02:56:14.301Z,101376.84
2019-05-23T02:59:03.019Z,101373.46
2019-05-23T03:02:08.150Z,101368.30
2019-05-23T03:04:38.501Z,101368.66
2019-05-23T03:07:09.639Z,101370.80
2019-05-23T03:09:39.915Z,101371.53
2019-05-23T03:12:11.253Z,101370.55
2019-05-23T03:14:42.412Z,101371.29
2019-05-23T03:17:16.428Z,101369.03
2019-05-23T03:19:51.703Z,101366.78
2019-05-23T03:22:30.941Z,101366.42
2019-05-23T03:25:03.114Z,101365.45
2019-05-23T03:27:36.759Z,101362.53
2019-05-23T03:30:08.970Z,101369.19
2019-05-23T03:32:49.821Z,101371.39
2019-05-23T03:35:47.656Z,101364.80
2019-05-23T03:38:17.431Z,101362.50
2019-05-23T03:40:47.305Z,101369.31
2019-05-23T03:43:17.454Z,101363.38
2019-05-23T03:45:53.313Z,101370.18
2019-05-23T03:48:23.992Z,101372.83
2019-05-23T03:50:55.320Z,101370.18
2019-05-23T03:53:27.633Z,101368.99
2019-05-23T03:55:57.559Z,101364.53
2019-05-23T03:58:27.227Z,101370.11
2019-05-23T04:00:57.271Z,101366.31
2019-05-23T04:03:29.531Z,101365.03
2019-05-23T04:05:59.564Z,101368.42
2019-05-23T04:08:29.687Z,101366.27
2019-05-23T04:10:59.234Z,101367.59
2019-05-23T04:13:29.087Z,101365.14
2019-05-23T04:15:58.699Z,101361.81
2019-05-23T04:18:28.279Z,101361.45
2019-05-23T04:20:57.798Z,101360.13
2019-05-23T04:23:27.286Z,101360.17
2019-05-23T04:25:56.797Z,101363.92
2019-05-23T04:28:26.988Z,101361.36
2019-05-23T04:30:56.827Z,101359.81
2019-05-23T04:33:26.676Z,101365.64
2019-05-23T04:35:56.264Z,101366.10
2019-05-23T04:38:26.147Z,101364.61
2019-05-23T04:40:55.988Z,101366.03
2019-05-23T04:43:25.865Z,101361.05
2019-05-23T04:45:55.848Z,101365.06
2019-05-23T04:48:25.337Z,101364.39
2019-05-23T04:50:59.755Z,101364.25
2019-05-23T04:53:27.059Z,101368.26
2019-05-23T04:55:56.626Z,101369.25
2019-05-23T04:58:26.404Z,101366.73
2019-05-23T05:00:55.980Z,101362.56
2019-05-23T05:03:25.769Z,101366.41
2019-05-23T05:05:55.292Z,101368.97
2019-05-23T05:08:25.582Z,101369.52
2019-05-23T05:10:55.085Z,101366.08
2019-05-23T05:13:24.834Z,101363.14
2019-05-23T05:15:55.690Z,101363.31
2019-05-23T05:18:25.393Z,101370.66
2019-05-23T05:20:54.894Z,101370.83
2019-05-23T05:23:24.477Z,101371.85
2019-05-23T05:25:54.049Z,101381.02
2019-05-23T05:28:23.592Z,101379.02
2019-05-23T05:30:53.472Z,101380.98
2019-05-23T05:33:23.003Z,101377.73
2019-05-23T05:35:53.385Z,101380.89
2019-05-23T05:38:23.766Z,101383.25
2019-05-23T05:40:53.325Z,101381.64
2019-05-23T05:43:23.589Z,101388.12
2019-05-23T05:45:53.170Z,101378.50
2019-05-23T05:48:22.705Z,101386.78
2019-05-23T05:50:52.944Z,101383.50
2019-05-23T05:53:22.520Z,101383.31
2019-05-23T05:55:52.117Z,101380.46
2019-05-23T05:58:21.557Z,101388.64
2019-05-23T06:01:00.939Z,101387.99
2019-05-23T06:03:30.446Z,101392.87
2019-05-23T06:06:16.498Z,101389.27
2019-05-23T06:08:47.321Z,101392.85
2019-05-23T06:11:16.831Z,101390.95
2019-05-23T06:13:46.659Z,101390.66
2019-05-23T06:16:16.260Z,101384.84
2019-05-23T06:18:46.631Z,101387.55
2019-05-23T06:21:18.981Z,101352.34
2019-05-23T06:23:48.515Z,101383.92
2019-05-23T06:26:18.019Z,101393.03
2019-05-23T06:28:47.617Z,101396.11
2019-05-23T06:31:17.730Z,101391.02
2019-05-23T06:33:47.449Z,101392.35
2019-05-23T06:36:18.366Z,101386.77
2019-05-23T06:38:48.167Z,101388.90
2019-05-23T06:41:18.425Z,101392.83
2019-05-23T06:43:47.954Z,101390.67
2019-05-23T06:46:17.510Z,101392.41
2019-05-23T06:48:47.378Z,101390.69
2019-05-23T06:51:18.327Z,101391.12
2019-05-23T06:53:47.945Z,101342.45
2019-05-23T06:56:17.593Z,101393.30
2019-05-23T06:58:47.115Z,101392.45
2019-05-23T07:01:16.705Z,101395.89
2019-05-23T07:03:46.219Z,101388.59
2019-05-23T07:06:17.990Z,101390.73
2019-05-23T07:08:47.509Z,101389.86
2019-05-23T07:11:17.763Z,101387.27
2019-05-23T07:13:47.554Z,101385.57
2019-05-23T07:16:17.137Z,101390.74
2019-05-23T07:18:46.643Z,101387.28
2019-05-23T07:21:16.530Z,101389.87
2019-05-23T07:23:46.160Z,101338.22
2019-05-23T07:26:15.789Z,101389.01
2019-05-23T07:28:45.595Z,101389.41
2019-05-23T07:31:16.758Z,101389.84
2019-05-23T07:34:00.905Z,101392.42
2019-05-23T07:36:17.681Z,101390.67
2019-05-23T07:38:47.252Z,101391.92
2019-05-23T07:41:17.449Z,101388.91
2019-05-23T07:43:47.262Z,101390.59
2019-05-23T07:46:16.852Z,101393.19
2019-05-23T07:48:46.465Z,101391.44
2019-05-23T07:51:16.031Z,101397.02
2019-05-23T07:54:07.936Z,101396.19
2019-05-23T07:56:37.732Z,101394.00
2019-05-23T07:59:07.850Z,101389.70
2019-05-23T08:01:39.800Z,101383.15
2019-05-23T08:04:21.438Z,101383.13
2019-05-23T08:06:41.174Z,101382.23
2019-05-23T08:09:11.342Z,101382.17
2019-05-23T08:11:44.420Z,101385.59
2019-05-23T08:14:13.932Z,101379.48
2019-05-23T08:16:44.561Z,101373.39
2019-05-23T08:19:19.176Z,101380.70
2019-05-23T08:21:46.184Z,101383.20
2019-05-23T08:24:15.688Z,101387.48
2019-05-23T08:26:46.441Z,101386.28
2019-05-23T08:29:26.180Z,101385.33
2019-05-23T08:31:47.132Z,101384.77
2019-05-23T08:34:19.422Z,101382.98
2019-05-23T08:36:51.767Z,101382.51
2019-05-23T08:39:22.892Z,101382.88
2019-05-23T08:41:52.536Z,101381.20
2019-05-23T08:44:23.826Z,101378.90
2019-05-23T08:46:57.132Z,101377.59
2019-05-23T08:49:26.787Z,101376.67
2019-05-23T08:51:56.635Z,101378.73
2019-05-23T08:54:26.153Z,101381.22
2019-05-23T08:56:56.357Z,101372.07
2019-05-23T08:59:25.943Z,101361.69
2019-05-23T09:01:55.777Z,101377.95
2019-05-23T09:04:25.265Z,101376.56
2019-05-23T09:06:55.364Z,101371.34
2019-05-23T09:09:29.961Z,101369.56
2019-05-23T09:11:58.796Z,101364.73
2019-05-23T09:14:29.055Z,101365.22
2019-05-23T09:16:58.889Z,101364.73
2019-05-23T09:19:28.421Z,101311.81
2019-05-23T09:21:58.387Z,101359.61
2019-05-23T09:24:27.989Z,101362.56
2019-05-23T09:26:57.929Z,101352.60
2019-05-23T09:29:27.617Z,101354.40
2019-05-23T09:31:57.151Z,101350.52
2019-05-23T09:34:26.726Z,101351.73
2019-05-23T09:37:00.291Z,101348.13
2019-05-23T09:39:30.331Z,101357.14
2019-05-23T09:41:59.911Z,101355.58
2019-05-23T09:44:29.453Z,101349.30
2019-05-23T09:46:59.063Z,101346.03
2019-05-23T09:49:28.884Z,101346.80
2019-05-23T09:52:01.391Z,101344.66
2019-05-23T09:54:31.033Z,101341.44
2019-05-23T09:57:00.699Z,101338.96
2019-05-23T09:59:30.288Z,101338.41
2019-05-23T10:02:01.321Z,101340.81
2019-05-23T10:04:30.866Z,101338.11
2019-05-23T10:07:00.396Z,101339.33
2019-05-23T10:09:29.887Z,101339.36
2019-05-23T10:11:59.493Z,101337.36
2019-05-23T10:14:31.923Z,101334.58
2019-05-23T10:17:01.453Z,101336.22
2019-05-23T10:19:30.947Z,101331.46
2019-05-23T10:22:01.553Z,101327.09
2019-05-23T10:24:31.136Z,101327.55
2019-05-23T10:27:00.641Z,101318.43
2019-05-23T10:29:30.155Z,101311.00
2019-05-23T10:31:59.666Z,101312.69
2019-05-23T10:34:29.165Z,101311.55
2019-05-23T10:36:58.683Z,101311.88
2019-05-23T10:39:28.200Z,101307.82
2019-05-23T10:41:58.500Z,101307.34
2019-05-23T10:44:27.976Z,101278.88
2019-05-23T10:46:57.492Z,101299.48
2019-05-23T10:49:27.058Z,101298.61
2019-05-23T10:51:56.656Z,101307.88
2019-05-23T10:54:26.228Z,101294.49
2019-05-23T10:56:55.750Z,101285.11
2019-05-23T10:59:26.212Z,101288.15
2019-05-23T11:01:56.791Z,101284.25
2019-05-23T11:04:27.442Z,101283.12
2019-05-23T11:06:57.184Z,101285.82
2019-05-23T11:09:37.151Z,101288.52
2019-05-23T11:11:58.074Z,101279.66
2019-05-23T11:14:27.648Z,101279.46
2019-05-23T11:16:57.163Z,101278.50
2019-05-23T11:19:26.687Z,101277.25
2019-05-23T11:21:56.186Z,101279.01
2019-05-23T11:24:25.717Z,101272.38
2019-05-23T11:26:55.322Z,101272.47
2019-05-23T11:29:27.230Z,101268.82
2019-05-23T11:31:56.605Z,101265.71
2019-05-23T11:34:26.984Z,101258.09
2019-05-23T11:36:56.518Z,101257.10
2019-05-23T11:39:27.765Z,101252.39
2019-05-23T11:41:57.389Z,101252.14
2019-05-23T11:44:26.899Z,101242.69
2019-05-23T11:46:56.805Z,101246.20
2019-05-23T11:49:26.334Z,101245.63
2019-05-23T11:51:56.009Z,101239.45
2019-05-23T11:54:25.881Z,101242.33
2019-05-23T11:56:55.829Z,101241.35
2019-05-23T11:59:25.346Z,101238.92
2019-05-23T12:02:19.963Z,101240.84
2019-05-23T12:04:50.957Z,101230.64
2019-05-23T12:07:26.778Z,101228.48
2019-05-23T12:09:56.280Z,101227.44
2019-05-23T12:12:26.055Z,101230.69
2019-05-23T12:14:56.604Z,101216.23
2019-05-23T12:17:28.955Z,101212.39
2019-05-23T12:19:58.503Z,101216.20
2019-05-23T12:22:28.274Z,101217.08
2019-05-23T12:24:58.056Z,101209.57
2019-05-23T12:27:27.803Z,101204.84
2019-05-23T12:29:57.405Z,101205.91
2019-05-23T12:32:26.980Z,101203.44
2019-05-23T12:35:09.468Z,101204.30
2019-05-23T12:37:27.842Z,101201.31
2019-05-23T12:39:57.900Z,101199.86
2019-05-23T12:42:27.805Z,101198.59
2019-05-23T12:44:57.414Z,101196.05
2019-05-23T12:47:40.881Z,101190.55
2019-05-23T12:50:14.138Z,101191.78
2019-05-23T12:52:43.623Z,101184.34
2019-05-23T12:55:13.290Z,101183.86
2019-05-23T12:57:42.808Z,101189.80
2019-05-23T13:00:26.265Z,101181.01
2019-05-23T13:02:58.686Z,101182.87
2019-05-23T13:05:28.271Z,101182.01
2019-05-23T13:07:57.775Z,101177.33
2019-05-23T13:10:27.462Z,101180.39
2019-05-23T13:12:57.108Z,101181.58
2019-05-23T13:15:27.022Z,101175.28
2019-05-23T13:17:56.552Z,101174.69
2019-05-23T13:20:26.278Z,101173.52
2019-05-23T13:22:55.786Z,101176.52
2019-05-23T13:25:27.045Z,101167.41
2019-05-23T13:27:58.794Z,101165.44
2019-05-23T13:30:28.576Z,101163.53
2019-05-23T13:32:58.108Z,101151.66
2019-05-23T13:35:28.768Z,101158.63
2019-05-23T13:37:58.322Z,101159.88
2019-05-23T13:40:27.940Z,101158.12
2019-05-23T13:42:58.106Z,101156.72
2019-05-23T13:45:27.924Z,101154.07
2019-05-23T13:47:57.430Z,101155.72
2019-05-23T13:50:28.253Z,101152.09
2019-05-23T13:52:58.591Z,101149.48
2019-05-23T13:55:28.282Z,101140.98
2019-05-23T13:57:57.814Z,101145.80
2019-05-23T14:00:28.693Z,101140.58
2019-05-23T14:02:58.326Z,101137.69
2019-05-23T14:05:27.952Z,101139.94
2019-05-23T14:08:11.320Z,101138.86
2019-05-23T14:10:29.192Z,101131.77
2019-05-23T14:12:58.696Z,101133.02
2019-05-23T14:15:33.704Z,101130.66
2019-05-23T14:18:03.640Z,101123.19
2019-05-23T14:20:33.285Z,101126.45
2019-05-23T14:23:09.104Z,101124.89
2019-05-23T14:25:38.798Z,101119.84
2019-05-23T14:28:09.210Z,101121.54
2019-05-23T14:30:52.206Z,101121.54
2019-05-23T14:33:29.289Z,101113.65
2019-05-23T14:36:00.596Z,101120.88
2019-05-23T14:38:32.441Z,101110.66
2019-05-23T14:41:02.207Z,101117.75
2019-05-23T14:43:31.775Z,101120.57
2019-05-23T14:46:04.050Z,101115.52
2019-05-23T14:48:51.796Z,101120.16
2019-05-23T14:51:30.807Z,101115.59
2019-05-23T14:54:10.350Z,101109.70
2019-05-23T14:56:39.899Z,101114.94
2019-05-23T14:59:09.539Z,101113.11
2019-05-23T15:01:39.090Z,101111.55
2019-05-23T15:04:08.848Z,101110.61
2019-05-23T15:06:38.560Z,101111.73
2019-05-23T15:09:08.949Z,101111.63
2019-05-23T15:11:38.993Z,101110.86
2019-05-23T15:14:08.582Z,101110.00
2019-05-23T15:16:38.141Z,101104.39
2019-05-23T15:19:07.755Z,101104.20
2019-05-23T15:21:37.294Z,101108.11
2019-05-23T15:24:07.010Z,101100.41
2019-05-23T15:26:36.657Z,101102.19
2019-05-23T15:29:06.849Z,101106.38
2019-05-23T15:31:36.366Z,101100.25
2019-05-23T15:34:05.951Z,101095.47
2019-05-23T15:36:35.456Z,101091.22
2019-05-23T15:39:10.010Z,101100.16
2019-05-23T15:41:39.060Z,101090.42
2019-05-23T15:44:24.041Z,101086.74
2019-05-23T15:46:39.806Z,101089.14
2019-05-23T15:49:10.657Z,101088.92
2019-05-23T15:51:46.118Z,101083.11
2019-05-23T15:54:34.681Z,101085.65
2019-05-23T15:57:12.764Z,101081.64
2019-05-23T15:59:49.047Z,101081.47
2019-05-23T16:02:29.100Z,101074.75
2019-05-23T16:05:00.158Z,101081.06
2019-05-23T16:07:30.313Z,101076.58
2019-05-23T16:09:59.994Z,101075.13
2019-05-23T16:12:29.534Z,101069.70
2019-05-23T16:14:59.104Z,101071.83
2019-05-23T16:17:29.029Z,101066.12
2019-05-23T16:19:59.040Z,101074.67
2019-05-23T16:22:28.957Z,101051.43
2019-05-23T16:24:58.511Z,101064.84
2019-05-23T16:27:28.094Z,101064.99
2019-05-23T16:29:57.599Z,101063.84
2019-05-23T16:32:27.126Z,101058.45
2019-05-23T16:34:56.652Z,101059.66
2019-05-23T16:37:26.180Z,101059.53
2019-05-23T16:39:55.702Z,101060.17
2019-05-23T16:42:25.511Z,101065.02
2019-05-23T16:44:55.010Z,101059.02
2019-05-23T16:47:25.341Z,101057.94
2019-05-23T16:49:55.360Z,101054.14
2019-05-23T16:52:24.940Z,101051.05
2019-05-23T16:54:56.100Z,101055.44
2019-05-23T16:57:36.053Z,101054.06
2019-05-23T17:00:24.712Z,101051.59
2019-05-23T17:03:17.279Z,101049.44
2019-05-23T17:06:11.802Z,101046.16
2019-05-23T17:08:58.181Z,101040.48
2019-05-23T17:11:37.303Z,101020.20
2019-05-23T17:14:25.855Z,101042.02
2019-05-23T17:17:13.165Z,101038.62
2019-05-23T17:19:53.673Z,101036.42
2019-05-23T17:22:57.678Z,101041.16
2019-05-23T17:25:46.124Z,101035.50
2019-05-23T17:28:21.942Z,101038.52
2019-05-23T17:30:54.375Z,101036.28
2019-05-23T17:33:24.237Z,101041.69
2019-05-23T17:35:53.821Z,101038.92
2019-05-23T17:38:23.825Z,101038.55
2019-05-23T17:40:53.344Z,101033.81
2019-05-23T17:43:23.253Z,101030.49
2019-05-23T17:45:53.861Z,101027.06
2019-05-23T17:48:23.495Z,101028.38
2019-05-23T17:50:52.956Z,101030.12
2019-05-23T17:53:22.474Z,101024.19
2019-05-23T17:55:52.256Z,101023.58
2019-05-23T17:58:22.038Z,101021.49
2019-05-23T18:00:51.809Z,101022.31
2019-05-23T18:03:21.351Z,101019.43
2019-05-23T18:05:50.947Z,101016.74
2019-05-23T18:08:20.503Z,101022.59
2019-05-23T18:10:50.024Z,101019.83
2019-05-23T18:13:20.697Z,101014.11
2019-05-23T18:15:50.360Z,101013.50
2019-05-23T18:18:20.641Z,101008.57
2019-05-23T18:20:50.333Z,101005.97
2019-05-23T18:23:20.223Z,101001.30
2019-05-23T18:25:50.028Z,101001.45
2019-05-23T18:28:20.052Z,100953.70
2019-05-23T18:30:56.608Z,101003.28
2019-05-23T18:33:28.530Z,100999.05
2019-05-23T18:35:58.898Z,100968.54
2019-05-23T18:38:28.692Z,100960.93
2019-05-23T18:41:04.290Z,100999.95
2019-05-23T18:43:30.010Z,101000.10
2019-05-23T18:46:03.546Z,100998.64
2019-05-23T18:48:33.410Z,100999.78
2019-05-23T18:51:02.948Z,100998.38
2019-05-23T18:53:32.458Z,100994.84
2019-05-23T18:56:02.043Z,100993.58
2019-05-23T18:58:31.678Z,100992.51
2019-05-23T19:01:13.915Z,100995.75
2019-05-23T19:03:43.749Z,100998.77
2019-05-23T19:06:13.267Z,100998.88
2019-05-23T19:08:43.254Z,100995.00
2019-05-23T19:11:20.784Z,100992.55
2019-05-23T19:13:44.176Z,100995.73
2019-05-23T19:16:13.694Z,100992.08
2019-05-23T19:18:43.254Z,100993.85
2019-05-23T19:21:15.294Z,100995.69
2019-05-23T19:23:44.917Z,101000.52
2019-05-23T19:26:15.300Z,100996.80
2019-05-23T19:28:45.623Z,100994.11
2019-05-23T19:31:16.023Z,100988.49
2019-05-23T19:33:46.749Z,100996.09
2019-05-23T19:36:16.838Z,100997.08
2019-05-23T19:38:47.336Z,100994.67
2019-05-23T19:41:16.926Z,100996.11
2019-05-23T19:43:48.206Z,100997.39
2019-05-23T19:46:18.267Z,100998.58
2019-05-23T19:48:48.537Z,100999.51
2019-05-23T19:51:18.705Z,100991.79
2019-05-23T19:53:48.441Z,100988.97
2019-05-23T19:56:18.418Z,100990.50
2019-05-23T19:58:48.028Z,100991.36
2019-05-23T20:01:18.409Z,100987.23
2019-05-23T20:03:48.428Z,100990.72
2019-05-23T20:06:18.789Z,100993.91
2019-05-23T20:08:48.963Z,100994.88
2019-05-23T20:11:18.566Z,100994.54
2019-05-23T20:13:48.097Z,100996.77
2019-05-23T20:16:17.610Z,100997.33
2019-05-23T20:18:47.294Z,100995.71
2019-05-23T20:21:17.009Z,100991.19
2019-05-23T20:23:46.540Z,100994.29
2019-05-23T20:26:16.291Z,100991.46
2019-05-23T20:28:45.811Z,100995.52
2019-05-23T20:31:15.302Z,100994.83
2019-05-23T20:33:44.853Z,100995.77
2019-05-23T20:36:14.905Z,100987.25
2019-05-23T20:38:44.815Z,100992.69
2019-05-23T20:41:14.346Z,100997.55
2019-05-23T20:43:43.911Z,100999.36
2019-05-23T20:46:13.424Z,100999.86
2019-05-23T20:48:42.961Z,100994.62
2019-05-23T20:51:12.637Z,100994.61
2019-05-23T20:53:42.641Z,100992.09
2019-05-23T20:56:12.226Z,100991.30
2019-05-23T20:58:41.774Z,100992.63
2019-05-23T21:01:18.640Z,100986.64
2019-05-23T21:03:48.772Z,100986.31
2019-05-23T21:06:18.269Z,100982.52
2019-05-23T21:08:47.789Z,100980.45
2019-05-23T21:11:17.288Z,100982.28
2019-05-23T21:13:46.884Z,100983.64
2019-05-23T21:16:16.385Z,100981.56
2019-05-23T21:18:49.196Z,100976.88
2019-05-23T21:21:18.082Z,100983.38
2019-05-23T21:23:47.779Z,100981.27
2019-05-23T21:26:17.690Z,100981.27
2019-05-23T21:28:47.274Z,100983.93
2019-05-23T21:31:22.628Z,100982.28
2019-05-23T21:33:52.139Z,100984.08
2019-05-23T21:36:21.679Z,100985.50
2019-05-23T21:38:51.265Z,100980.41
2019-05-23T21:41:20.758Z,100986.94
2019-05-23T21:43:51.934Z,100983.19
2019-05-23T21:46:21.463Z,100981.12
2019-05-23T21:48:50.992Z,100974.83
2019-05-23T21:51:20.512Z,100978.66
2019-05-23T21:53:50.024Z,100979.51
2019-05-23T21:56:19.525Z,100975.20
2019-05-23T21:58:49.042Z,100973.05
2019-05-23T22:01:37.978Z,100970.02
2019-05-23T22:04:38.826Z,100969.65
2019-05-23T22:07:09.091Z,100963.67
2019-05-23T22:09:39.074Z,100966.70
2019-05-23T22:12:12.737Z,100960.66
2019-05-23T22:14:42.260Z,100965.08
2019-05-23T22:17:11.763Z,100959.14
2019-05-23T22:19:41.571Z,100961.30
2019-05-23T22:22:11.298Z,100949.77
2019-05-23T22:24:40.819Z,100949.37
2019-05-23T22:27:11.244Z,100944.70
2019-05-23T22:29:40.748Z,100943.89
2019-05-23T22:32:11.888Z,100938.72
2019-05-23T22:34:49.379Z,100938.37
2019-05-23T22:37:24.530Z,100940.10
2019-05-23T22:39:54.101Z,100959.20
2019-05-23T22:42:24.977Z,100966.23
2019-05-23T22:44:54.489Z,100974.14
2019-05-23T22:47:25.004Z,100992.64
2019-05-23T22:49:54.610Z,100990.95
2019-05-23T22:52:24.192Z,100981.89
2019-05-23T22:54:53.717Z,100974.48
2019-05-23T22:57:23.228Z,100971.83
2019-05-23T22:59:52.767Z,100979.97
2019-05-23T23:02:22.268Z,100974.77
2019-05-23T23:04:51.775Z,100983.39
2019-05-23T23:07:21.382Z,100979.55
2019-05-23T23:09:51.067Z,100982.52
2019-05-23T23:12:20.571Z,100976.92
2019-05-23T23:14:50.250Z,100981.70
2019-05-23T23:17:20.412Z,100976.10
2019-05-23T23:19:49.910Z,100982.16
2019-05-23T23:22:19.477Z,100984.75
2019-05-23T23:24:48.933Z,100983.52
2019-05-23T23:27:18.471Z,100984.41
2019-05-23T23:29:48.000Z,100978.88
2019-05-23T23:32:17.530Z,100978.84
2019-05-23T23:34:47.046Z,100979.27
2019-05-23T23:37:16.561Z,100974.55
2019-05-23T23:39:46.122Z,100967.20
2019-05-23T23:42:15.609Z,100968.02
2019-05-23T23:44:44.275Z,100962.43
2019-05-23T23:47:31.659Z,100965.87
2019-05-23T23:50:19.258Z,100959.91
2019-05-23T23:53:06.609Z,100960.86
2019-05-23T23:55:53.921Z,100961.33
2019-05-23T23:58:23.545Z,100957.05
